createdAt,value
2022-12-08T00:00:38.356Z,948.1
2022-12-08T00:01:40.554Z,948.1
2022-12-08T00:02:43.359Z,948.1
2022-12-08T00:03:45.692Z,948.1
2022-12-08T00:04:47.699Z,948
2022-12-08T00:05:49.481Z,948.1
2022-12-08T00:06:51.196Z,948.1
2022-12-08T00:07:53.201Z,948.1
2022-12-08T00:08:55.140Z,948.1
2022-12-08T00:09:56.958Z,948.1
2022-12-08T00:10:58.823Z,948.2
2022-12-08T00:12:00.651Z,948.3
2022-12-08T00:13:02.503Z,948.3
2022-12-08T00:14:04.247Z,948.4
2022-12-08T00:15:06.883Z,948.5
2022-12-08T00:16:08.905Z,948.5
2022-12-08T00:17:10.656Z,948.5
2022-12-08T00:18:12.395Z,948.5
2022-12-08T00:19:14.043Z,948.5
2022-12-08T00:20:15.869Z,948.6
2022-12-08T00:21:17.615Z,948.5
2022-12-08T00:22:19.294Z,948.5
2022-12-08T00:23:21.219Z,948.5
2022-12-08T00:24:22.929Z,948.5
2022-12-08T00:25:24.839Z,948.6
2022-12-08T00:26:26.667Z,948.6
2022-12-08T00:27:28.502Z,948.6
2022-12-08T00:28:30.226Z,948.6
2022-12-08T00:29:32.099Z,948.6
2022-12-08T00:30:33.915Z,948.6
2022-12-08T00:31:36.065Z,948.6
2022-12-08T00:32:38.062Z,948.6
2022-12-08T00:33:39.711Z,948.6
2022-12-08T00:34:41.379Z,948.7
2022-12-08T00:35:43.845Z,948.6
2022-12-08T00:36:45.573Z,948.6
2022-12-08T00:37:47.424Z,948.6
2022-12-08T00:38:49.212Z,948.6
2022-12-08T00:39:50.877Z,948.6
2022-12-08T00:40:52.898Z,948.5
2022-12-08T00:41:54.711Z,948.5
2022-12-08T00:42:56.540Z,948.6
2022-12-08T00:43:58.315Z,948.6
2022-12-08T00:45:00.075Z,948.6
2022-12-08T00:46:02.266Z,948.6
2022-12-08T00:47:04.271Z,948.6
2022-12-08T00:48:06.128Z,948.6
2022-12-08T00:49:07.877Z,948.6
2022-12-08T00:50:09.694Z,948.6
2022-12-08T00:51:11.572Z,948.6
2022-12-08T00:52:13.528Z,948.6
2022-12-08T00:53:15.262Z,948.7
2022-12-08T00:54:17.119Z,948.7
2022-12-08T00:55:18.980Z,948.8
2022-12-08T00:56:20.848Z,948.8
2022-12-08T00:57:22.687Z,948.8
2022-12-08T00:58:24.523Z,948.7
2022-12-08T00:59:26.263Z,948.7
2022-12-08T01:00:27.896Z,948.8
2022-12-08T01:01:32.905Z,948.8
2022-12-08T01:02:34.886Z,948.8
2022-12-08T01:03:36.782Z,948.8
2022-12-08T01:04:38.551Z,948.8
2022-12-08T01:05:40.332Z,948.8
2022-12-08T01:06:42.089Z,948.7
2022-12-08T01:07:43.977Z,948.7
2022-12-08T01:08:45.984Z,948.7
2022-12-08T01:09:47.733Z,948.6
2022-12-08T01:10:49.511Z,948.6
2022-12-08T01:11:51.356Z,948.6
2022-12-08T01:12:53.182Z,948.6
2022-12-08T01:13:54.913Z,948.6
2022-12-08T01:15:03.160Z,948.6
2022-12-08T01:16:05.075Z,948.6
2022-12-08T01:17:07.064Z,948.6
2022-12-08T01:18:09.085Z,948.6
2022-12-08T01:19:10.859Z,948.7
2022-12-08T01:20:12.681Z,948.7
2022-12-08T01:21:14.291Z,948.7
2022-12-08T01:22:15.900Z,948.7
2022-12-08T01:23:17.800Z,948.7
2022-12-08T01:24:19.576Z,948.8
2022-12-08T01:25:21.534Z,948.7
2022-12-08T01:26:23.196Z,948.7
2022-12-08T01:27:25.051Z,948.7
2022-12-08T01:28:26.880Z,948.7
2022-12-08T01:29:28.601Z,948.8
2022-12-08T01:30:30.623Z,948.8
2022-12-08T01:31:32.523Z,948.8
2022-12-08T01:32:34.181Z,948.7
2022-12-08T01:33:35.924Z,948.7
2022-12-08T01:34:37.869Z,948.7
2022-12-08T01:35:39.621Z,948.7
2022-12-08T01:36:41.366Z,948.6
2022-12-08T01:37:43.109Z,948.6
2022-12-08T01:38:44.857Z,948.6
2022-12-08T01:39:46.708Z,948.5
2022-12-08T01:40:48.354Z,948.5
2022-12-08T01:41:50.101Z,948.5
2022-12-08T01:42:51.886Z,948.5
2022-12-08T01:43:53.702Z,948.5
2022-12-08T01:44:55.583Z,948.5
2022-12-08T01:45:57.424Z,948.5
2022-12-08T01:46:59.229Z,948.5
2022-12-08T01:48:01.453Z,948.5
2022-12-08T01:49:03.373Z,948.5
2022-12-08T01:50:06.336Z,948.5
2022-12-08T01:51:08.799Z,948.5
2022-12-08T01:52:10.553Z,948.4
2022-12-08T01:53:12.383Z,948.3
2022-12-08T01:54:14.152Z,948.3
2022-12-08T01:55:16.000Z,948.3
2022-12-08T01:56:17.846Z,948.3
2022-12-08T01:57:19.594Z,948.3
2022-12-08T01:58:21.471Z,948.2
2022-12-08T01:59:23.269Z,948.2
2022-12-08T02:00:25.248Z,948.2
2022-12-08T02:01:27.262Z,948.2
2022-12-08T02:02:29.306Z,948.2
2022-12-08T02:03:31.204Z,948.2
2022-12-08T02:04:32.963Z,948.1
2022-12-08T02:05:34.601Z,948.1
2022-12-08T02:06:36.453Z,948.2
2022-12-08T02:07:38.433Z,948.2
2022-12-08T02:08:40.246Z,948.2
2022-12-08T02:09:41.883Z,948.2
2022-12-08T02:10:43.643Z,948.2
2022-12-08T02:11:45.399Z,948.2
2022-12-08T02:12:47.353Z,948.2
2022-12-08T02:13:49.221Z,948.2
2022-12-08T02:14:51.044Z,948.2
2022-12-08T02:15:52.935Z,948.2
2022-12-08T02:16:54.979Z,948.2
2022-12-08T02:17:56.716Z,948.2
2022-12-08T02:19:32.038Z,948.2
2022-12-08T02:20:34.204Z,948.3
2022-12-08T02:21:36.034Z,948.2
2022-12-08T02:22:37.792Z,948.3
2022-12-08T02:23:39.634Z,948.3
2022-12-08T02:24:44.251Z,948.3
2022-12-08T02:25:45.997Z,948.3
2022-12-08T02:26:47.749Z,948.3
2022-12-08T02:27:49.594Z,948.3
2022-12-08T02:28:51.586Z,948.3
2022-12-08T02:29:53.419Z,948.3
2022-12-08T02:30:55.628Z,948.2
2022-12-08T02:31:57.609Z,948.2
2022-12-08T02:32:59.356Z,948.2
2022-12-08T02:34:01.307Z,948.2
2022-12-08T02:35:03.069Z,948.2
2022-12-08T02:36:04.917Z,948.3
2022-12-08T02:37:06.555Z,948.3
2022-12-08T02:38:08.503Z,948.4
2022-12-08T02:39:10.284Z,948.4
2022-12-08T02:40:11.917Z,948.4
2022-12-08T02:41:13.646Z,948.3
2022-12-08T02:42:15.400Z,948.3
2022-12-08T02:43:17.349Z,948.3
2022-12-08T02:44:19.312Z,948.3
2022-12-08T02:45:21.081Z,948.4
2022-12-08T02:46:23.117Z,948.4
2022-12-08T02:47:25.161Z,948.4
2022-12-08T02:48:27.128Z,948.4
2022-12-08T02:49:28.749Z,948.3
2022-12-08T02:50:33.656Z,948.3
2022-12-08T02:51:35.539Z,948.3
2022-12-08T02:52:37.385Z,948.2
2022-12-08T02:53:39.044Z,948.2
2022-12-08T02:54:40.778Z,948.2
2022-12-08T02:55:42.628Z,948.2
2022-12-08T02:56:44.391Z,948.2
2022-12-08T02:57:46.212Z,948.2
2022-12-08T02:58:47.969Z,948.2
2022-12-08T02:59:49.852Z,948.2
2022-12-08T03:00:51.572Z,948.2
2022-12-08T03:01:53.833Z,948.2
2022-12-08T03:02:56.203Z,948.2
2022-12-08T03:03:58.388Z,948.2
2022-12-08T03:05:00.191Z,948.3
2022-12-08T03:06:02.301Z,948.3
2022-12-08T03:07:04.020Z,948.3
2022-12-08T03:08:06.206Z,948.3
2022-12-08T03:09:08.208Z,948.3
2022-12-08T03:10:09.951Z,948.3
2022-12-08T03:11:11.676Z,948.3
2022-12-08T03:12:13.660Z,948.2
2022-12-08T03:13:15.371Z,948.1
2022-12-08T03:14:17.351Z,948.1
2022-12-08T03:15:19.143Z,948.2
2022-12-08T03:16:21.291Z,948.2
2022-12-08T03:17:25.775Z,948.2
2022-12-08T03:18:27.624Z,948.3
2022-12-08T03:19:29.569Z,948.2
2022-12-08T03:20:31.310Z,948.3
2022-12-08T03:21:33.063Z,948.2
2022-12-08T03:22:35.224Z,948.2
2022-12-08T03:23:37.385Z,948.2
2022-12-08T03:24:39.238Z,948.2
2022-12-08T03:25:41.188Z,948.2
2022-12-08T03:26:43.028Z,948.2
2022-12-08T03:27:45.110Z,948.2
2022-12-08T03:28:46.831Z,948.1
2022-12-08T03:29:48.596Z,948.1
2022-12-08T03:30:50.632Z,948.1
2022-12-08T03:31:52.384Z,948.1
2022-12-08T03:32:54.256Z,948.1
2022-12-08T03:33:56.019Z,948.2
2022-12-08T03:34:57.725Z,948.2
2022-12-08T03:35:59.390Z,948.2
2022-12-08T03:37:01.112Z,948.2
2022-12-08T03:38:02.972Z,948.2
2022-12-08T03:39:04.695Z,948.1
2022-12-08T03:40:07.782Z,948.2
2022-12-08T03:41:09.862Z,948.2
2022-12-08T03:42:11.521Z,948.1
2022-12-08T03:43:13.280Z,948.2
2022-12-08T03:44:15.200Z,948.2
2022-12-08T03:45:16.871Z,948.2
2022-12-08T03:46:18.905Z,948.2
2022-12-08T03:47:20.851Z,948.2
2022-12-08T03:48:22.700Z,948.2
2022-12-08T03:49:24.348Z,948.3
2022-12-08T03:50:26.121Z,948.2
2022-12-08T03:51:27.869Z,948.2
2022-12-08T03:52:29.581Z,948.2
2022-12-08T03:53:31.232Z,948.2
2022-12-08T03:54:32.909Z,948.2
2022-12-08T03:55:34.627Z,948.2
2022-12-08T03:56:39.393Z,948.3
2022-12-08T03:57:41.089Z,948.3
2022-12-08T03:58:42.849Z,948.3
2022-12-08T03:59:44.504Z,948.3
2022-12-08T04:00:46.201Z,948.3
2022-12-08T04:01:48.433Z,948.2
2022-12-08T04:02:50.527Z,948.2
2022-12-08T04:03:52.605Z,948.3
2022-12-08T04:04:54.348Z,948.2
2022-12-08T04:05:55.994Z,948.3
2022-12-08T04:06:57.776Z,948.3
2022-12-08T04:07:59.711Z,948.3
2022-12-08T04:09:01.566Z,948.3
2022-12-08T04:10:04.697Z,948.3
2022-12-08T04:11:07.185Z,948.3
2022-12-08T04:12:08.933Z,948.3
2022-12-08T04:13:10.583Z,948.3
2022-12-08T04:14:12.430Z,948.3
2022-12-08T04:15:14.180Z,948.3
2022-12-08T04:16:16.361Z,948.4
2022-12-08T04:17:18.416Z,948.3
2022-12-08T04:18:20.170Z,948.3
2022-12-08T04:19:21.996Z,948.3
2022-12-08T04:20:23.661Z,948.3
2022-12-08T04:21:25.379Z,948.4
2022-12-08T04:22:27.647Z,948.4
2022-12-08T04:23:29.640Z,948.4
2022-12-08T04:24:31.430Z,948.3
2022-12-08T04:25:33.309Z,948.3
2022-12-08T04:26:35.040Z,948.4
2022-12-08T04:27:36.901Z,948.4
2022-12-08T04:28:38.741Z,948.3
2022-12-08T04:29:40.492Z,948.3
2022-12-08T04:30:42.240Z,948.3
2022-12-08T04:31:44.263Z,948.3
2022-12-08T04:32:48.126Z,948.4
2022-12-08T04:33:49.943Z,948.4
2022-12-08T04:34:51.788Z,948.4
2022-12-08T04:35:53.510Z,948.3
2022-12-08T04:36:55.496Z,948.3
2022-12-08T04:37:57.339Z,948.4
2022-12-08T04:38:59.088Z,948.4
2022-12-08T04:40:01.205Z,948.4
2022-12-08T04:41:03.411Z,948.3
2022-12-08T04:42:05.365Z,948.3
2022-12-08T04:43:07.202Z,948.4
2022-12-08T04:44:09.060Z,948.5
2022-12-08T04:45:10.809Z,948.5
2022-12-08T04:46:12.902Z,948.5
2022-12-08T04:47:15.274Z,948.4
2022-12-08T04:48:17.196Z,948.4
2022-12-08T04:49:18.961Z,948.4
2022-12-08T04:50:20.791Z,948.4
2022-12-08T04:51:22.484Z,948.4
2022-12-08T04:52:24.438Z,948.4
2022-12-08T04:53:26.215Z,948.5
2022-12-08T04:54:27.963Z,948.5
2022-12-08T04:55:29.815Z,948.5
2022-12-08T04:56:31.460Z,948.5
2022-12-08T04:57:33.102Z,948.5
2022-12-08T04:58:34.963Z,948.5
2022-12-08T04:59:36.700Z,948.5
2022-12-08T05:00:38.453Z,948.5
2022-12-08T05:01:40.765Z,948.5
2022-12-08T05:02:43.562Z,948.5
2022-12-08T05:03:45.466Z,948.5
2022-12-08T05:04:47.224Z,948.5
2022-12-08T05:05:49.028Z,948.5
2022-12-08T05:06:50.890Z,948.5
2022-12-08T05:07:53.075Z,948.5
2022-12-08T05:08:54.888Z,948.6
2022-12-08T05:09:56.720Z,948.5
2022-12-08T05:10:58.697Z,948.6
2022-12-08T05:12:00.646Z,948.6
2022-12-08T05:13:02.403Z,948.5
2022-12-08T05:14:04.183Z,948.6
2022-12-08T05:15:05.898Z,948.6
2022-12-08T05:16:07.991Z,948.6
2022-12-08T05:17:10.389Z,948.7
2022-12-08T05:18:12.256Z,948.6
2022-12-08T05:19:14.039Z,948.6
2022-12-08T05:20:15.752Z,948.6
2022-12-08T05:21:17.684Z,948.6
2022-12-08T05:22:19.351Z,948.6
2022-12-08T05:23:21.208Z,948.6
2022-12-08T05:24:22.955Z,948.7
2022-12-08T05:25:24.805Z,948.6
2022-12-08T05:26:26.641Z,948.6
2022-12-08T05:27:28.445Z,948.6
2022-12-08T05:28:44.156Z,948.6
2022-12-08T05:29:46.222Z,948.7
2022-12-08T05:30:47.978Z,948.7
2022-12-08T05:31:50.381Z,948.7
2022-12-08T05:32:52.500Z,948.6
2022-12-08T05:33:54.649Z,948.6
2022-12-08T05:35:02.585Z,948.7
2022-12-08T05:36:04.404Z,948.7
2022-12-08T05:37:06.343Z,948.8
2022-12-08T05:38:08.065Z,948.7
2022-12-08T05:39:09.726Z,948.7
2022-12-08T05:40:11.799Z,948.6
2022-12-08T05:41:13.700Z,948.7
2022-12-08T05:42:20.540Z,948.7
2022-12-08T05:43:27.254Z,948.8
2022-12-08T05:44:29.019Z,948.8
2022-12-08T05:45:30.875Z,948.8
2022-12-08T05:46:32.602Z,948.9
2022-12-08T05:47:36.734Z,948.9
2022-12-08T05:48:38.689Z,948.9
2022-12-08T05:49:40.555Z,948.9
2022-12-08T05:50:42.407Z,948.9
2022-12-08T05:51:44.242Z,948.9
2022-12-08T05:52:46.106Z,948.9
2022-12-08T05:53:47.923Z,948.9
2022-12-08T05:54:49.573Z,948.9
2022-12-08T05:55:51.235Z,948.8
2022-12-08T05:56:52.901Z,948.7
2022-12-08T05:57:54.613Z,948.7
2022-12-08T05:58:57.575Z,948.8
2022-12-08T05:59:59.327Z,948.8
2022-12-08T06:01:01.082Z,948.9
2022-12-08T06:02:03.447Z,948.9
2022-12-08T06:03:06.192Z,948.8
2022-12-08T06:04:08.382Z,948.8
2022-12-08T06:05:10.227Z,948.8
2022-12-08T06:06:12.112Z,948.8
2022-12-08T06:07:16.697Z,948.9
2022-12-08T06:08:18.691Z,948.9
2022-12-08T06:09:20.804Z,948.8
2022-12-08T06:10:22.661Z,948.8
2022-12-08T06:11:24.624Z,948.8
2022-12-08T06:12:26.372Z,948.8
2022-12-08T06:13:28.175Z,948.8
2022-12-08T06:14:30.070Z,948.7
2022-12-08T06:15:31.901Z,948.8
2022-12-08T06:16:36.893Z,948.8
2022-12-08T06:17:38.925Z,948.8
2022-12-08T06:18:40.627Z,948.9
2022-12-08T06:19:42.392Z,949
2022-12-08T06:20:44.340Z,949
2022-12-08T06:21:46.199Z,949
2022-12-08T06:22:48.021Z,949
2022-12-08T06:23:50.191Z,949
2022-12-08T06:24:52.228Z,949
2022-12-08T06:25:53.850Z,949.1
2022-12-08T06:26:55.608Z,949
2022-12-08T06:27:57.372Z,949
2022-12-08T06:28:59.126Z,949
2022-12-08T06:30:01.286Z,949
2022-12-08T06:31:03.557Z,949.1
2022-12-08T06:32:05.520Z,949.2
2022-12-08T06:33:07.658Z,949.2
2022-12-08T06:34:09.498Z,949.2
2022-12-08T06:35:11.246Z,949.1
2022-12-08T06:36:12.915Z,949.1
2022-12-08T06:37:14.880Z,949.1
2022-12-08T06:38:16.503Z,949.1
2022-12-08T06:39:18.352Z,949.2
2022-12-08T06:40:20.093Z,949.2
2022-12-08T06:41:21.891Z,949.2
2022-12-08T06:42:23.739Z,949.2
2022-12-08T06:43:25.421Z,949.2
2022-12-08T06:44:27.055Z,949.1
2022-12-08T06:45:29.010Z,949.1
2022-12-08T06:46:31.241Z,949.1
2022-12-08T06:47:33.414Z,949.1
2022-12-08T06:48:35.137Z,949.1
2022-12-08T06:49:36.916Z,949.1
2022-12-08T06:50:38.604Z,949
2022-12-08T06:51:40.436Z,949
2022-12-08T06:53:05.585Z,949
2022-12-08T06:54:07.628Z,949
2022-12-08T06:55:09.353Z,949
2022-12-08T06:56:11.009Z,949
2022-12-08T06:57:12.724Z,949
2022-12-08T06:58:14.483Z,949
2022-12-08T06:59:16.237Z,949
2022-12-08T07:00:17.964Z,948.9
2022-12-08T07:01:20.229Z,948.9
2022-12-08T07:02:22.273Z,948.9
2022-12-08T07:03:24.140Z,949
2022-12-08T07:04:25.928Z,949.1
2022-12-08T07:05:27.640Z,949
2022-12-08T07:06:29.595Z,949
2022-12-08T07:07:34.423Z,949
2022-12-08T07:08:36.291Z,949.1
2022-12-08T07:09:38.117Z,949.1
2022-12-08T07:10:39.807Z,949.1
2022-12-08T07:11:41.610Z,949
2022-12-08T07:12:44.850Z,949
2022-12-08T07:13:46.654Z,948.9
2022-12-08T07:14:48.366Z,949
2022-12-08T07:15:50.235Z,949
2022-12-08T07:16:52.398Z,949.1
2022-12-08T07:18:00.981Z,949.1
2022-12-08T07:19:02.957Z,949.1
2022-12-08T07:20:05.574Z,949.1
2022-12-08T07:21:08.418Z,949.2
2022-12-08T07:22:10.177Z,949.2
2022-12-08T07:23:11.814Z,949.1
2022-12-08T07:24:13.763Z,949.2
2022-12-08T07:25:15.418Z,949.2
2022-12-08T07:26:17.338Z,949.2
2022-12-08T07:27:18.917Z,949.2
2022-12-08T07:28:20.618Z,949.2
2022-12-08T07:29:26.904Z,949.2
2022-12-08T07:30:29.331Z,949.3
2022-12-08T07:31:31.573Z,949.3
2022-12-08T07:32:33.449Z,949.3
2022-12-08T07:33:35.265Z,949.3
2022-12-08T07:34:36.968Z,949.4
2022-12-08T07:35:38.685Z,949.4
2022-12-08T07:36:40.337Z,949.4
2022-12-08T07:37:42.229Z,949.5
2022-12-08T07:38:44.040Z,949.5
2022-12-08T07:39:45.913Z,949.5
2022-12-08T07:40:47.838Z,949.5
2022-12-08T07:41:49.687Z,949.5
2022-12-08T07:42:51.460Z,949.6
2022-12-08T07:43:53.214Z,949.6
2022-12-08T07:44:55.008Z,949.6
2022-12-08T07:45:57.240Z,949.5
2022-12-08T07:46:59.184Z,949.5
2022-12-08T07:48:01.432Z,949.4
2022-12-08T07:49:03.162Z,949.4
2022-12-08T07:50:05.919Z,949.4
2022-12-08T07:51:08.082Z,949.5
2022-12-08T07:52:10.039Z,949.5
2022-12-08T07:53:12.209Z,949.5
2022-12-08T07:54:13.945Z,949.5
2022-12-08T07:55:15.719Z,949.4
2022-12-08T07:56:17.516Z,949.4
2022-12-08T07:57:19.390Z,949.5
2022-12-08T07:58:21.172Z,949.4
2022-12-08T07:59:23.104Z,949.4
2022-12-08T08:00:25.245Z,949.4
2022-12-08T08:01:27.850Z,949.4
2022-12-08T08:02:30.544Z,949.4
2022-12-08T08:03:32.606Z,949.4
2022-12-08T08:04:34.617Z,949.4
2022-12-08T08:05:36.540Z,949.4
2022-12-08T08:06:38.392Z,949.5
2022-12-08T08:07:40.482Z,949.5
2022-12-08T08:08:42.562Z,949.5
2022-12-08T08:09:44.350Z,949.5
2022-12-08T08:10:46.185Z,949.5
2022-12-08T08:12:32.482Z,949.5
2022-12-08T08:13:35.054Z,949.5
2022-12-08T08:14:36.678Z,949.5
2022-12-08T08:15:38.964Z,949.4
2022-12-08T08:16:41.086Z,949.5
2022-12-08T08:17:43.074Z,949.4
2022-12-08T08:18:44.745Z,949.4
2022-12-08T08:19:46.572Z,949.5
2022-12-08T08:20:48.413Z,949.5
2022-12-08T08:21:50.010Z,949.5
2022-12-08T08:22:51.860Z,949.4
2022-12-08T08:23:53.655Z,949.4
2022-12-08T08:24:55.310Z,949.4
2022-12-08T08:25:57.196Z,949.4
2022-12-08T08:26:59.120Z,949.4
2022-12-08T08:28:00.728Z,949.4
2022-12-08T08:29:02.606Z,949.4
2022-12-08T08:30:05.406Z,949.5
2022-12-08T08:31:07.821Z,949.5
2022-12-08T08:32:09.890Z,949.5
2022-12-08T08:33:11.681Z,949.5
2022-12-08T08:34:13.500Z,949.5
2022-12-08T08:35:15.251Z,949.5
2022-12-08T08:36:16.883Z,949.5
2022-12-08T08:37:18.858Z,949.5
2022-12-08T08:38:20.584Z,949.5
2022-12-08T08:39:22.356Z,949.5
2022-12-08T08:40:24.270Z,949.4
2022-12-08T08:41:26.279Z,949.4
2022-12-08T08:42:28.086Z,949.4
2022-12-08T08:43:38.980Z,949.4
2022-12-08T08:44:40.837Z,949.4
2022-12-08T08:45:42.660Z,949.4
2022-12-08T08:46:44.639Z,949.3
2022-12-08T08:47:46.465Z,949.3
2022-12-08T08:48:48.411Z,949.3
2022-12-08T08:49:50.775Z,949.3
2022-12-08T08:50:52.511Z,949.3
2022-12-08T08:51:54.260Z,949.3
2022-12-08T08:52:56.056Z,949.3
2022-12-08T08:53:57.855Z,949.3
2022-12-08T08:54:59.733Z,949.3
2022-12-08T08:56:03.409Z,949.3
2022-12-08T08:57:05.290Z,949.3
2022-12-08T08:58:07.030Z,949.3
2022-12-08T08:59:08.879Z,949.4
2022-12-08T09:00:10.837Z,949.4
2022-12-08T09:01:12.939Z,949.3
2022-12-08T09:02:17.958Z,949.3
2022-12-08T09:03:19.728Z,949.3
2022-12-08T09:04:21.952Z,949.3
2022-12-08T09:05:23.868Z,949.3
2022-12-08T09:06:25.927Z,949.3
2022-12-08T09:07:27.952Z,949.3
2022-12-08T09:08:30.049Z,949.3
2022-12-08T09:09:31.958Z,949.3
2022-12-08T09:10:33.717Z,949.2
2022-12-08T09:11:35.447Z,949.2
2022-12-08T09:12:37.328Z,949.2
2022-12-08T09:13:39.062Z,949.2
2022-12-08T09:14:40.942Z,949.2
2022-12-08T09:15:43.036Z,949.1
2022-12-08T09:16:45.255Z,949.1
2022-12-08T09:17:47.180Z,949.1
2022-12-08T09:18:48.815Z,949.1
2022-12-08T09:19:50.655Z,949.1
2022-12-08T09:20:53.368Z,949
2022-12-08T09:21:57.748Z,949
2022-12-08T09:22:59.490Z,949
2022-12-08T09:24:01.250Z,949
2022-12-08T09:25:02.978Z,949
2022-12-08T09:26:04.723Z,949
2022-12-08T09:27:06.692Z,949
2022-12-08T09:28:08.472Z,949
2022-12-08T09:29:10.182Z,948.9
2022-12-08T09:30:12.294Z,948.9
2022-12-08T09:31:14.704Z,949
2022-12-08T09:32:16.748Z,948.9
2022-12-08T09:33:18.596Z,948.9
2022-12-08T09:34:20.461Z,948.9
2022-12-08T09:35:22.132Z,948.8
2022-12-08T09:36:23.993Z,948.9
2022-12-08T09:37:25.688Z,948.9
2022-12-08T09:38:27.558Z,948.9
2022-12-08T09:39:29.220Z,948.9
2022-12-08T09:40:31.156Z,948.8
2022-12-08T09:41:48.453Z,948.8
2022-12-08T09:42:50.367Z,948.8
2022-12-08T09:43:52.082Z,948.8
2022-12-08T09:44:53.742Z,948.8
2022-12-08T09:45:55.664Z,948.8
2022-12-08T09:46:58.247Z,948.8
2022-12-08T09:48:00.184Z,948.8
2022-12-08T09:49:01.975Z,948.9
2022-12-08T09:50:05.212Z,948.8
2022-12-08T09:51:07.395Z,948.9
2022-12-08T09:52:09.637Z,948.9
2022-12-08T09:53:11.592Z,948.9
2022-12-08T09:54:13.641Z,948.9
2022-12-08T09:55:15.651Z,948.9
2022-12-08T09:56:17.479Z,948.9
2022-12-08T09:57:19.223Z,948.9
2022-12-08T09:58:20.926Z,948.9
2022-12-08T09:59:22.806Z,948.9
2022-12-08T10:00:24.633Z,948.9
2022-12-08T10:01:26.691Z,948.9
2022-12-08T10:02:29.055Z,948.9
2022-12-08T10:03:30.817Z,948.8
2022-12-08T10:04:33.299Z,948.7
2022-12-08T10:05:35.687Z,948.7
2022-12-08T10:06:37.681Z,948.6
2022-12-08T10:07:39.683Z,948.6
2022-12-08T10:08:41.556Z,948.6
2022-12-08T10:09:43.241Z,948.6
2022-12-08T10:10:45.072Z,948.5
2022-12-08T10:11:46.766Z,948.5
2022-12-08T10:12:48.482Z,948.5
2022-12-08T10:13:50.282Z,948.5
2022-12-08T10:14:52.163Z,948.5
2022-12-08T10:15:54.242Z,948.5
2022-12-08T10:16:56.551Z,948.5
2022-12-08T10:17:58.470Z,948.5
2022-12-08T10:19:00.121Z,948.5
2022-12-08T10:20:03.170Z,948.5
2022-12-08T10:21:05.917Z,948.5
2022-12-08T10:22:07.678Z,948.5
2022-12-08T10:23:09.380Z,948.4
2022-12-08T10:24:13.957Z,948.5
2022-12-08T10:25:15.799Z,948.5
2022-12-08T10:26:17.564Z,948.5
2022-12-08T10:27:19.285Z,948.4
2022-12-08T10:28:21.235Z,948.5
2022-12-08T10:29:23.082Z,948.4
2022-12-08T10:30:24.847Z,948.4
2022-12-08T10:31:26.950Z,948.4
2022-12-08T10:32:28.876Z,948.4
2022-12-08T10:33:30.626Z,948.4
2022-12-08T10:34:32.549Z,948.4
2022-12-08T10:35:34.278Z,948.3
2022-12-08T10:36:36.244Z,948.3
2022-12-08T10:37:37.974Z,948.3
2022-12-08T10:38:39.834Z,948.4
2022-12-08T10:39:41.608Z,948.4
2022-12-08T10:40:46.189Z,948.4
2022-12-08T10:41:47.955Z,948.4
2022-12-08T10:42:49.667Z,948.4
2022-12-08T10:43:51.432Z,948.3
2022-12-08T10:44:53.093Z,948.3
2022-12-08T10:45:54.966Z,948.3
2022-12-08T10:46:57.170Z,948.3
2022-12-08T10:47:58.979Z,948.2
2022-12-08T10:49:00.899Z,948.2
2022-12-08T10:50:04.131Z,948.1
2022-12-08T10:51:06.423Z,948.1
2022-12-08T10:52:08.291Z,948.1
2022-12-08T10:53:10.037Z,948.1
2022-12-08T10:54:11.682Z,948.1
2022-12-08T10:55:13.542Z,948.1
2022-12-08T10:56:15.482Z,948.1
2022-12-08T10:57:17.231Z,948.1
2022-12-08T10:58:19.007Z,948
2022-12-08T10:59:20.700Z,948.1
2022-12-08T11:00:22.671Z,948.1
2022-12-08T11:01:24.668Z,948.1
2022-12-08T11:02:26.973Z,948.1
2022-12-08T11:03:29.040Z,948.1
2022-12-08T11:04:30.916Z,948
2022-12-08T11:05:32.747Z,948.1
2022-12-08T11:06:34.639Z,948
2022-12-08T11:07:36.878Z,948
2022-12-08T11:08:38.818Z,948
2022-12-08T11:09:40.669Z,948
2022-12-08T11:10:42.930Z,948
2022-12-08T11:11:44.661Z,948
2022-12-08T11:12:46.422Z,948
2022-12-08T11:13:48.179Z,948
2022-12-08T11:14:49.986Z,948
2022-12-08T11:15:51.827Z,948
2022-12-08T11:16:54.108Z,948
2022-12-08T11:17:58.047Z,947.9
2022-12-08T11:18:59.706Z,948
2022-12-08T11:20:02.228Z,947.9
2022-12-08T11:21:04.901Z,947.9
2022-12-08T11:22:06.653Z,947.9
2022-12-08T11:23:08.468Z,947.8
2022-12-08T11:24:10.255Z,947.8
2022-12-08T11:25:12.210Z,947.8
2022-12-08T11:26:14.142Z,947.7
2022-12-08T11:27:15.810Z,947.7
2022-12-08T11:28:17.640Z,947.7
2022-12-08T11:29:19.234Z,947.7
2022-12-08T11:30:21.419Z,947.6
2022-12-08T11:31:23.706Z,947.6
2022-12-08T11:32:25.810Z,947.7
2022-12-08T11:33:27.526Z,947.7
2022-12-08T11:34:29.382Z,947.7
2022-12-08T11:35:31.225Z,947.6
2022-12-08T11:36:33.689Z,947.6
2022-12-08T11:37:36.001Z,947.5
2022-12-08T11:38:37.995Z,947.5
2022-12-08T11:39:39.816Z,947.5
2022-12-08T11:40:42.065Z,947.5
2022-12-08T11:41:44.470Z,947.5
2022-12-08T11:42:46.237Z,947.5
2022-12-08T11:43:47.996Z,947.5
2022-12-08T11:44:49.813Z,947.5
2022-12-08T11:45:52.535Z,947.6
2022-12-08T11:46:54.623Z,947.6
2022-12-08T11:47:56.624Z,947.6
2022-12-08T11:49:08.041Z,947.6
2022-12-08T11:50:10.343Z,947.6
2022-12-08T11:51:13.835Z,947.6
2022-12-08T11:52:15.806Z,947.5
2022-12-08T11:53:18.127Z,947.5
2022-12-08T11:54:19.880Z,947.5
2022-12-08T11:55:22.101Z,947.5
2022-12-08T11:56:23.791Z,947.5
2022-12-08T11:57:25.639Z,947.5
2022-12-08T11:58:27.733Z,947.5
2022-12-08T11:59:29.870Z,947.5
2022-12-08T12:00:31.595Z,947.4
2022-12-08T12:01:43.062Z,947.4
2022-12-08T12:02:45.298Z,947.4
2022-12-08T12:03:47.685Z,947.4
2022-12-08T12:04:50.061Z,947.4
2022-12-08T12:06:55.267Z,947.4
2022-12-08T12:07:57.899Z,947.4
2022-12-08T12:08:59.916Z,947.4
2022-12-08T12:10:02.405Z,947.3
2022-12-08T12:11:04.837Z,947.3
2022-12-08T12:12:06.592Z,947.3
2022-12-08T12:13:09.253Z,947.3
2022-12-08T12:14:10.997Z,947.3
2022-12-08T12:15:13.359Z,947.3
2022-12-08T12:16:15.347Z,947.3
2022-12-08T12:17:17.271Z,947.3
2022-12-08T12:18:18.982Z,947.3
2022-12-08T12:19:20.900Z,947.4
2022-12-08T12:20:22.632Z,947.4
2022-12-08T12:21:24.470Z,947.3
2022-12-08T12:22:26.200Z,947.3
2022-12-08T12:23:27.930Z,947.3
2022-12-08T12:24:36.559Z,947.3
2022-12-08T12:25:38.344Z,947.3
2022-12-08T12:26:40.255Z,947.4
2022-12-08T12:27:41.943Z,947.4
2022-12-08T12:28:43.771Z,947.4
2022-12-08T12:29:45.994Z,947.4
2022-12-08T12:30:53.931Z,947.4
2022-12-08T12:31:55.993Z,947.4
2022-12-08T12:32:57.722Z,947.4
2022-12-08T12:33:59.562Z,947.4
2022-12-08T12:35:01.508Z,947.3
2022-12-08T12:36:03.124Z,947.3
2022-12-08T12:37:04.839Z,947.3
2022-12-08T12:38:06.721Z,947.3
2022-12-08T12:39:08.621Z,947.3
2022-12-08T12:40:10.556Z,947.3
2022-12-08T12:41:12.351Z,947.3
2022-12-08T12:42:14.013Z,947.2
2022-12-08T12:43:15.884Z,947.2
2022-12-08T12:44:17.716Z,947.2
2022-12-08T12:45:19.802Z,947.2
2022-12-08T12:46:21.739Z,947.2
2022-12-08T12:47:23.832Z,947.2
2022-12-08T12:48:25.660Z,947.2
2022-12-08T12:49:27.524Z,947.2
2022-12-08T12:50:29.398Z,947.2
2022-12-08T12:51:30.982Z,947.2
2022-12-08T12:52:32.803Z,947.2
2022-12-08T12:53:34.467Z,947.2
2022-12-08T12:54:36.256Z,947.1
2022-12-08T12:55:38.101Z,947.1
2022-12-08T12:56:39.959Z,947.1
2022-12-08T12:57:41.738Z,947.2
2022-12-08T12:58:43.347Z,947.2
2022-12-08T12:59:55.744Z,947.2
2022-12-08T13:00:58.244Z,947.2
2022-12-08T13:02:00.737Z,947.2
2022-12-08T13:03:02.902Z,947.2
2022-12-08T13:04:04.992Z,947.2
2022-12-08T13:05:06.914Z,947.2
2022-12-08T13:06:15.289Z,947.2
2022-12-08T13:07:17.197Z,947.2
2022-12-08T13:08:19.126Z,947.2
2022-12-08T13:09:21.020Z,947.1
2022-12-08T13:10:22.804Z,947.1
2022-12-08T13:11:24.579Z,947.1
2022-12-08T13:12:26.447Z,947.1
2022-12-08T13:13:28.165Z,947.1
2022-12-08T13:14:29.973Z,947.1
2022-12-08T13:15:31.691Z,947.1
2022-12-08T13:16:33.586Z,947
2022-12-08T13:17:35.707Z,947
2022-12-08T13:18:37.441Z,947
2022-12-08T13:19:39.200Z,947.1
2022-12-08T13:20:40.929Z,947
2022-12-08T13:21:42.824Z,947.1
2022-12-08T13:22:44.580Z,947.1
2022-12-08T13:23:46.268Z,947.2
2022-12-08T13:24:48.103Z,947.1
2022-12-08T13:25:50.014Z,947.1
2022-12-08T13:26:51.731Z,947